createdAt,value
2022-08-30T00:01:03.378Z,77137.16
2022-08-30T00:03:38.682Z,77151.06
2022-08-30T00:06:06.694Z,77143.13
2022-08-30T00:08:34.939Z,77147.09
2022-08-30T00:11:03.448Z,77155.03
2022-08-30T00:13:29.986Z,77143.13
2022-08-30T00:15:57.288Z,77155.03
2022-08-30T00:18:24.486Z,77170.94
2022-08-30T00:20:52.449Z,77176.91
2022-08-30T00:23:20.268Z,77178.88
2022-08-30T00:25:46.956Z,77166.97
2022-08-30T00:28:14.917Z,77157.03
2022-08-30T00:30:42.355Z,77157.03
2022-08-30T00:33:09.094Z,77157.03
2022-08-30T00:35:35.703Z,77163.00
2022-08-30T00:38:02.470Z,77166.97
2022-08-30T00:40:30.934Z,77174.91
2022-08-30T00:43:04.122Z,77176.91
2022-08-30T00:45:37.553Z,77182.88
2022-08-30T00:48:06.385Z,77174.91
2022-08-30T00:50:38.710Z,77182.88
2022-08-30T00:53:08.699Z,77170.94
2022-08-30T00:55:38.798Z,77159.00
2022-08-30T00:58:08.620Z,77164.97
2022-08-30T01:00:35.889Z,77174.91
2022-08-30T01:03:02.792Z,77170.94
2022-08-30T01:05:30.115Z,77182.88
2022-08-30T01:07:56.647Z,77186.84
2022-08-30T01:10:23.315Z,77190.81
2022-08-30T01:12:50.140Z,77188.81
2022-08-30T01:15:16.849Z,77198.75
2022-08-30T01:17:47.661Z,77210.69
2022-08-30T01:20:24.223Z,77210.69
2022-08-30T01:22:50.788Z,77202.75
2022-08-30T01:25:21.304Z,77204.72
2022-08-30T01:27:52.368Z,77202.75
2022-08-30T01:30:19.068Z,77198.75
2022-08-30T01:32:47.626Z,77208.69
2022-08-30T01:35:17.048Z,77212.69
2022-08-30T01:37:45.356Z,77210.69
2022-08-30T01:40:17.053Z,77198.75
2022-08-30T01:42:43.562Z,77188.81
2022-08-30T01:45:11.500Z,77192.81
2022-08-30T01:47:38.646Z,77194.78
2022-08-30T01:50:07.400Z,77200.75
2022-08-30T01:52:35.350Z,77190.81
2022-08-30T01:55:02.692Z,77204.72
2022-08-30T01:57:29.392Z,77206.72
2022-08-30T01:59:55.936Z,77202.75
2022-08-30T02:02:27.414Z,77214.66
2022-08-30T02:04:55.122Z,77214.66
2022-08-30T02:07:23.838Z,77208.69
2022-08-30T02:09:51.814Z,77204.72
2022-08-30T02:12:18.947Z,77194.78
2022-08-30T02:14:45.651Z,77206.72
2022-08-30T02:17:15.160Z,77208.69
2022-08-30T02:19:42.670Z,77214.66
2022-08-30T02:22:09.381Z,77222.63
2022-08-30T02:24:36.002Z,77226.59
2022-08-30T02:27:02.702Z,77214.66
2022-08-30T02:29:29.689Z,77212.69
2022-08-30T02:31:56.423Z,77198.75
2022-08-30T02:34:23.124Z,77210.69
2022-08-30T02:36:50.037Z,77224.59
2022-08-30T02:39:17.884Z,77212.69
2022-08-30T02:41:44.494Z,77228.56
2022-08-30T02:44:11.317Z,77230.56
2022-08-30T02:46:38.662Z,77226.59
2022-08-30T02:49:23.809Z,77222.63
2022-08-30T02:51:52.005Z,77222.63
2022-08-30T02:54:20.183Z,77218.63
2022-08-30T02:56:47.981Z,77212.69
2022-08-30T02:59:15.787Z,77214.66
2022-08-30T03:01:42.446Z,77226.59
2022-08-30T03:04:09.854Z,77240.50
2022-08-30T03:06:37.197Z,77250.44
2022-08-30T03:09:03.920Z,77250.44
2022-08-30T03:11:31.536Z,77254.41
2022-08-30T03:13:58.659Z,77258.38
2022-08-30T03:16:25.255Z,77254.41
2022-08-30T03:18:51.914Z,77266.34
2022-08-30T03:21:18.705Z,77270.31
2022-08-30T03:23:45.707Z,77278.25
2022-08-30T03:26:14.827Z,77274.28
2022-08-30T03:28:42.700Z,77268.31
2022-08-30T03:31:09.679Z,77262.38
2022-08-30T03:33:37.804Z,77274.28
2022-08-30T03:36:05.689Z,77282.25
2022-08-30T03:38:32.468Z,77270.31
2022-08-30T03:40:59.038Z,77266.34
2022-08-30T03:43:26.481Z,77282.25
2022-08-30T03:45:53.184Z,77280.25
2022-08-30T03:48:19.745Z,77282.25
2022-08-30T03:50:46.332Z,77284.22
2022-08-30T03:53:12.972Z,77284.22
2022-08-30T03:55:39.515Z,77284.22
2022-08-30T03:58:06.000Z,77296.16
2022-08-30T04:00:32.550Z,77288.22
2022-08-30T04:02:59.131Z,77290.19
2022-08-30T04:05:27.393Z,77284.22
2022-08-30T04:07:54.288Z,77282.25
2022-08-30T04:10:21.369Z,77298.13
2022-08-30T04:12:49.918Z,77298.13
2022-08-30T04:15:18.050Z,77310.06
2022-08-30T04:17:44.905Z,77310.06
2022-08-30T04:20:11.563Z,77310.06
2022-08-30T04:22:38.210Z,77310.06
2022-08-30T04:25:05.883Z,77290.19
2022-08-30T04:27:32.583Z,77308.09
2022-08-30T04:30:00.227Z,77302.13
2022-08-30T04:32:27.177Z,77306.09
2022-08-30T04:34:59.900Z,77308.09
2022-08-30T04:37:27.447Z,77314.03
2022-08-30T04:40:00.739Z,77318.03
2022-08-30T04:42:32.205Z,77323.97
2022-08-30T04:44:59.486Z,77323.97
2022-08-30T04:47:26.295Z,77331.94
2022-08-30T04:49:53.379Z,77331.94
2022-08-30T04:52:20.132Z,77329.94
2022-08-30T04:54:46.707Z,77316.03
2022-08-30T04:57:13.289Z,77294.16
2022-08-30T04:59:39.862Z,77290.19
2022-08-30T05:02:06.491Z,77284.22
2022-08-30T05:04:33.026Z,77258.38
2022-08-30T05:06:59.534Z,77274.28
2022-08-30T05:09:26.124Z,77266.34
2022-08-30T05:11:52.947Z,77266.34
2022-08-30T05:14:19.522Z,77268.31
2022-08-30T05:16:46.400Z,77250.44
2022-08-30T05:19:12.991Z,77254.41
2022-08-30T05:21:41.357Z,77238.50
2022-08-30T05:24:08.263Z,77234.53
2022-08-30T05:26:38.326Z,77222.63
2022-08-30T05:29:04.976Z,77198.75
2022-08-30T05:31:34.878Z,77186.84
2022-08-30T05:34:02.355Z,77186.84
2022-08-30T05:36:31.133Z,77178.88
2022-08-30T05:38:58.042Z,77176.91
2022-08-30T05:41:26.533Z,77164.97
2022-08-30T05:43:55.452Z,77164.97
2022-08-30T05:46:22.434Z,77145.09
2022-08-30T05:48:50.666Z,77145.09
2022-08-30T05:51:22.984Z,77155.03
2022-08-30T05:53:51.398Z,77139.13
2022-08-30T05:56:21.643Z,77141.13
2022-08-30T05:58:51.586Z,77119.25
2022-08-30T06:01:33.139Z,77113.31
2022-08-30T06:04:04.032Z,77107.34
2022-08-30T06:06:34.542Z,77093.44
2022-08-30T06:09:01.831Z,77077.53
2022-08-30T06:11:32.194Z,77059.63
2022-08-30T06:13:58.719Z,77053.69
2022-08-30T06:16:27.547Z,77055.66
2022-08-30T06:18:55.678Z,77041.75
2022-08-30T06:21:25.662Z,77053.69
2022-08-30T06:23:52.913Z,77055.66
2022-08-30T06:26:19.752Z,77055.66
2022-08-30T06:28:46.328Z,77023.88
2022-08-30T06:31:15.250Z,77015.91
2022-08-30T06:33:42.770Z,76996.03
2022-08-30T06:36:13.323Z,76956.28
2022-08-30T06:38:43.508Z,76946.34
2022-08-30T06:41:13.155Z,76924.50
2022-08-30T06:43:40.255Z,76918.53
2022-08-30T06:46:12.514Z,76912.56
2022-08-30T06:48:39.276Z,76920.53
2022-08-30T06:51:06.505Z,76906.59
2022-08-30T06:53:33.702Z,76902.63
2022-08-30T06:56:16.555Z,76906.59
2022-08-30T06:58:44.124Z,76882.75
2022-08-30T07:01:18.053Z,76900.66
2022-08-30T07:03:44.780Z,76910.59
2022-08-30T07:06:11.525Z,76920.53
2022-08-30T07:08:39.081Z,76906.59
2022-08-30T07:11:07.661Z,76868.84
2022-08-30T07:13:36.215Z,76831.09
2022-08-30T07:16:10.750Z,76811.22
2022-08-30T07:18:52.190Z,76829.09
2022-08-30T07:21:21.373Z,76833.06
2022-08-30T07:23:53.256Z,76848.97
2022-08-30T07:26:26.608Z,76850.97
2022-08-30T07:28:55.725Z,76833.06
2022-08-30T07:31:23.291Z,76827.13
2022-08-30T07:33:50.080Z,76821.16
2022-08-30T07:36:17.761Z,76811.22
2022-08-30T07:38:48.375Z,76793.34
2022-08-30T07:41:34.192Z,76795.31
2022-08-30T07:44:00.852Z,76779.41
2022-08-30T07:46:28.299Z,76771.47
2022-08-30T07:48:55.959Z,76761.53
2022-08-30T07:51:26.078Z,76769.47
2022-08-30T07:53:53.515Z,76737.69
2022-08-30T07:56:21.768Z,76709.88
2022-08-30T07:58:48.946Z,76693.97
2022-08-30T08:01:18.746Z,76662.16
2022-08-30T08:03:46.743Z,76697.94
2022-08-30T08:06:15.737Z,76672.09
2022-08-30T08:08:43.689Z,76654.22
2022-08-30T08:11:16.487Z,76656.22
2022-08-30T08:13:54.211Z,76662.16
2022-08-30T08:16:26.894Z,76662.16
2022-08-30T08:18:54.779Z,76674.09
2022-08-30T08:21:23.446Z,76672.09
2022-08-30T08:23:50.476Z,76699.94
2022-08-30T08:26:17.583Z,76682.03
2022-08-30T08:28:45.072Z,76691.97
2022-08-30T08:31:27.193Z,76678.06
2022-08-30T08:33:58.715Z,76725.75
2022-08-30T08:36:25.558Z,76715.81
2022-08-30T08:38:52.574Z,76729.75
2022-08-30T08:41:49.885Z,76725.75
2022-08-30T08:44:34.725Z,76670.13
2022-08-30T08:47:11.242Z,76612.50
2022-08-30T08:49:40.133Z,76550.88
2022-08-30T08:52:31.575Z,76540.94
2022-08-30T08:55:05.304Z,76519.09
2022-08-30T08:57:35.651Z,76525.06
2022-08-30T09:00:09.399Z,76509.16
2022-08-30T09:02:46.460Z,76513.13
2022-08-30T09:05:22.510Z,76531.00
2022-08-30T09:07:56.381Z,76550.88
2022-08-30T09:10:47.002Z,76576.72
2022-08-30T09:13:12.971Z,76604.53
2022-08-30T09:15:40.945Z,76622.44
2022-08-30T09:18:19.532Z,76610.50
2022-08-30T09:20:50.562Z,76574.72
2022-08-30T09:23:22.579Z,76540.94
2022-08-30T09:25:51.768Z,76531.00
2022-08-30T09:28:43.424Z,76485.31
2022-08-30T09:31:24.415Z,76447.56
2022-08-30T09:34:03.603Z,76443.59
2022-08-30T09:36:40.817Z,76399.88
2022-08-30T09:39:37.716Z,76389.94
2022-08-30T09:42:19.758Z,76397.88
2022-08-30T09:44:46.945Z,76407.81
2022-08-30T09:47:28.093Z,76370.06
2022-08-30T09:50:16.886Z,76348.19
2022-08-30T09:52:53.326Z,76334.28
2022-08-30T09:55:46.440Z,76383.97
2022-08-30T09:58:29.348Z,76419.72
2022-08-30T10:01:20.271Z,76451.53
2022-08-30T10:04:01.490Z,76463.44
2022-08-30T10:06:36.820Z,76493.25
2022-08-30T10:09:19.544Z,76509.16
2022-08-30T10:11:55.075Z,76521.09
2022-08-30T10:14:51.046Z,76499.22
2022-08-30T10:17:27.066Z,76491.28
2022-08-30T10:20:23.620Z,76493.25
2022-08-30T10:23:10.655Z,76485.31
2022-08-30T10:25:50.154Z,76457.50
2022-08-30T10:28:35.193Z,76445.56
2022-08-30T10:31:30.999Z,76467.44
2022-08-30T10:34:03.418Z,76469.41
2022-08-30T10:36:43.439Z,76437.63
2022-08-30T10:39:19.649Z,76417.75
2022-08-30T10:41:52.168Z,76395.91
2022-08-30T10:44:27.847Z,76389.94
2022-08-30T10:47:02.750Z,76366.09
2022-08-30T10:49:36.356Z,76352.19
2022-08-30T10:52:28.976Z,76338.25
2022-08-30T10:55:09.723Z,76316.41
2022-08-30T10:57:36.750Z,76278.66
2022-08-30T11:00:10.877Z,76282.63
2022-08-30T11:02:58.859Z,76312.44
2022-08-30T11:05:43.791Z,76334.28
2022-08-30T11:08:39.570Z,76354.16
2022-08-30T11:11:21.426Z,76342.25
2022-08-30T11:13:50.975Z,76354.16
2022-08-30T11:16:32.860Z,76360.13
2022-08-30T11:19:01.433Z,76356.16
2022-08-30T11:21:39.062Z,76350.19
2022-08-30T11:24:11.499Z,76344.22
2022-08-30T11:26:50.876Z,76348.19
2022-08-30T11:29:27.033Z,76352.19
2022-08-30T11:32:18.400Z,76322.38
2022-08-30T11:34:45.998Z,76320.38
2022-08-30T11:37:37.358Z,76258.78
2022-08-30T11:40:14.291Z,76169.38
2022-08-30T11:42:49.545Z,76165.41
2022-08-30T11:45:25.310Z,76151.50
2022-08-30T11:48:04.450Z,76153.47
2022-08-30T11:51:08.906Z,76143.53
2022-08-30T11:53:50.805Z,76167.38
2022-08-30T11:56:25.130Z,76181.28
2022-08-30T11:59:01.747Z,76217.06
2022-08-30T12:01:51.900Z,76230.97
2022-08-30T12:04:17.720Z,76213.09
2022-08-30T12:06:50.142Z,76185.25
2022-08-30T12:09:26.373Z,76181.28
2022-08-30T12:11:52.860Z,76195.19
2022-08-30T12:14:41.455Z,76161.44
2022-08-30T12:17:41.731Z,76161.44
2022-08-30T12:20:38.691Z,76163.41
2022-08-30T12:23:23.797Z,76145.53
2022-08-30T12:26:08.503Z,76123.66
2022-08-30T12:28:37.596Z,76133.59
2022-08-30T12:31:26.125Z,76103.81
2022-08-30T12:34:03.394Z,76089.91
2022-08-30T12:36:41.267Z,76099.81
2022-08-30T12:39:18.939Z,76093.88
2022-08-30T12:41:45.635Z,76087.91
2022-08-30T12:44:27.720Z,76085.91
2022-08-30T12:47:03.074Z,76125.66
2022-08-30T12:49:34.248Z,76127.66
2022-08-30T12:52:23.413Z,76139.56
2022-08-30T12:54:51.436Z,76125.66
2022-08-30T12:57:45.230Z,76089.91
2022-08-30T13:00:27.370Z,76054.13
2022-08-30T13:02:56.539Z,76038.22
2022-08-30T13:05:48.199Z,76028.31
2022-08-30T13:08:36.463Z,76052.16
2022-08-30T13:11:12.317Z,76040.22
2022-08-30T13:13:43.598Z,75994.53
2022-08-30T13:16:39.513Z,75984.59
2022-08-30T13:19:34.161Z,76004.47
2022-08-30T13:22:01.994Z,75996.50
2022-08-30T13:24:28.796Z,75960.75
2022-08-30T13:27:11.828Z,75994.53
2022-08-30T13:29:38.493Z,75962.75
2022-08-30T13:32:05.197Z,75958.75
2022-08-30T13:34:33.864Z,75936.91
2022-08-30T13:37:01.983Z,75944.84
2022-08-30T13:39:29.008Z,75921.00
2022-08-30T13:42:31.208Z,75942.88
2022-08-30T13:44:42.614Z,75940.88
2022-08-30T13:49:57.959Z,75960.75
2022-08-30T13:52:25.794Z,75930.94
2022-08-30T13:54:55.118Z,75958.75
2022-08-30T14:00:19.976Z,76002.47
2022-08-30T14:02:54.883Z,76000.47
2022-08-30T14:11:09.351Z,76030.28
2022-08-30T14:13:36.106Z,76016.38
2022-08-30T14:18:53.935Z,75986.56
2022-08-30T14:21:21.491Z,75988.56
2022-08-30T14:23:51.206Z,75962.75
2022-08-30T14:26:21.186Z,75968.69
2022-08-30T14:28:51.406Z,75990.56
2022-08-30T14:31:19.021Z,75978.63
2022-08-30T14:33:46.752Z,75968.69
2022-08-30T14:36:15.439Z,75960.75
2022-08-30T14:38:43.120Z,75960.75
2022-08-30T14:41:10.846Z,75930.94
2022-08-30T14:43:42.007Z,75928.97
2022-08-30T14:46:10.157Z,75903.13
2022-08-30T14:48:38.756Z,75913.06
2022-08-30T14:51:20.219Z,75915.06
2022-08-30T14:53:48.139Z,75930.94
2022-08-30T14:56:19.794Z,75926.97
2022-08-30T14:58:49.927Z,75913.06
2022-08-30T15:01:17.523Z,75915.06
2022-08-30T15:03:44.136Z,75897.16
2022-08-30T15:06:10.915Z,75821.69
2022-08-30T15:08:38.022Z,75674.66
2022-08-30T15:11:11.453Z,75541.56
2022-08-30T15:13:39.193Z,75362.75
2022-08-30T15:16:12.011Z,75448.19
2022-08-30T15:18:38.651Z,75615.06
2022-08-30T15:21:08.392Z,75664.72
2022-08-30T15:23:34.883Z,75680.63
2022-08-30T15:26:01.635Z,75756.13
2022-08-30T15:28:28.156Z,75851.47
2022-08-30T15:30:55.579Z,75807.75
2022-08-30T15:33:23.203Z,75706.44
2022-08-30T15:35:52.366Z,75509.78
2022-08-30T15:38:19.683Z,75199.88
2022-08-30T15:40:50.230Z,75170.09
2022-08-30T15:43:17.096Z,75158.16
2022-08-30T15:45:44.254Z,75064.81
2022-08-30T15:48:11.576Z,75044.94
2022-08-30T15:50:38.182Z,75295.22
2022-08-30T15:53:07.406Z,75491.88
2022-08-30T15:55:34.108Z,75704.47
2022-08-30T15:58:00.837Z,75682.59
2022-08-30T16:00:27.594Z,75573.34
2022-08-30T16:02:54.227Z,75684.59
2022-08-30T16:05:28.028Z,75702.47
2022-08-30T16:07:57.490Z,75819.69
2022-08-30T16:10:24.273Z,75980.63
2022-08-30T16:12:53.471Z,76099.81
2022-08-30T16:15:20.162Z,76151.50
2022-08-30T16:17:47.115Z,76193.22
2022-08-30T16:20:14.572Z,76230.97
2022-08-30T16:22:43.610Z,76258.78
2022-08-30T16:25:12.891Z,76284.63
2022-08-30T16:27:42.979Z,76310.44
2022-08-30T16:30:11.670Z,76328.34
2022-08-30T16:32:39.778Z,76346.22
2022-08-30T16:35:07.738Z,76354.16
2022-08-30T16:37:34.260Z,76358.13
2022-08-30T16:40:01.534Z,76374.03
2022-08-30T16:42:28.208Z,76380.00
2022-08-30T16:44:55.240Z,76391.91
2022-08-30T16:47:22.285Z,76405.81
2022-08-30T16:49:49.709Z,76409.81
2022-08-30T16:52:16.983Z,76409.81
2022-08-30T16:54:44.967Z,76437.63
2022-08-30T16:57:12.327Z,76445.56
2022-08-30T16:59:39.052Z,76459.47
2022-08-30T17:02:05.599Z,76475.38
2022-08-30T17:04:32.666Z,76487.28
2022-08-30T17:06:59.203Z,76491.28
2022-08-30T17:09:25.825Z,76501.22
2022-08-30T17:11:53.055Z,76519.09
2022-08-30T17:14:28.181Z,76523.06
2022-08-30T17:17:00.531Z,76538.97
2022-08-30T17:19:28.823Z,76544.94
2022-08-30T17:21:56.355Z,76556.84
2022-08-30T17:24:24.852Z,76580.69
2022-08-30T17:26:52.527Z,76588.63
2022-08-30T17:29:19.475Z,76598.56
2022-08-30T17:31:51.158Z,76616.47
2022-08-30T17:34:18.676Z,76632.34
2022-08-30T17:36:45.293Z,76640.31
2022-08-30T17:39:13.027Z,76660.19
2022-08-30T17:41:45.628Z,76670.13
2022-08-30T17:44:25.534Z,76686.00
2022-08-30T17:46:52.780Z,76680.06
2022-08-30T17:49:19.327Z,76690.00
2022-08-30T17:51:47.693Z,76695.94
2022-08-30T17:54:17.790Z,76701.91
2022-08-30T17:56:44.655Z,76703.91
2022-08-30T17:59:12.178Z,76705.88
2022-08-30T18:01:39.609Z,76705.88
2022-08-30T18:04:06.657Z,76709.88
2022-08-30T18:06:34.470Z,76713.84
2022-08-30T18:09:06.715Z,76723.78
2022-08-30T18:11:36.113Z,76717.81
2022-08-30T18:14:04.207Z,76725.75
2022-08-30T18:16:33.466Z,76735.69
2022-08-30T18:19:03.475Z,76739.66
2022-08-30T18:21:30.134Z,76745.63
2022-08-30T18:23:57.097Z,76745.63
2022-08-30T18:26:24.583Z,76743.66
2022-08-30T18:28:55.141Z,76757.56
2022-08-30T18:31:22.192Z,76753.59
2022-08-30T18:33:48.763Z,76763.53
2022-08-30T18:36:15.896Z,76767.50
2022-08-30T18:38:42.722Z,76777.44
2022-08-30T18:41:13.934Z,76781.41
2022-08-30T18:43:40.696Z,76781.41
2022-08-30T18:46:10.356Z,76791.34
2022-08-30T18:48:39.160Z,76789.34
2022-08-30T18:51:15.035Z,76789.34
2022-08-30T18:53:42.667Z,76793.34
2022-08-30T18:56:11.174Z,76797.31
2022-08-30T18:58:40.413Z,76801.28
2022-08-30T19:01:12.778Z,76801.28
2022-08-30T19:03:40.155Z,76799.28
2022-08-30T19:06:11.518Z,76803.25
2022-08-30T19:08:40.180Z,76817.19
2022-08-30T19:11:07.912Z,76819.16
2022-08-30T19:13:35.510Z,76827.13
2022-08-30T19:16:04.199Z,76829.09
2022-08-30T19:18:30.850Z,76833.06
2022-08-30T19:20:57.559Z,76843.00
2022-08-30T19:23:26.983Z,76835.06
2022-08-30T19:25:54.466Z,76845.00
2022-08-30T19:28:21.284Z,76847.00
2022-08-30T19:30:47.857Z,76847.00
2022-08-30T19:33:14.407Z,76852.94
2022-08-30T19:35:40.960Z,76848.97
2022-08-30T19:38:07.519Z,76858.91
2022-08-30T19:40:34.752Z,76864.88
2022-08-30T19:43:02.232Z,76876.78
2022-08-30T19:45:31.439Z,76878.78
2022-08-30T19:48:00.833Z,76884.75
2022-08-30T19:50:27.451Z,76886.72
2022-08-30T19:52:55.312Z,76894.69
2022-08-30T19:55:28.671Z,76904.63
2022-08-30T19:57:57.059Z,76916.53
2022-08-30T20:00:23.715Z,76922.50
2022-08-30T20:02:51.448Z,76920.53
2022-08-30T20:05:18.935Z,76926.47
2022-08-30T20:07:45.624Z,76926.47
2022-08-30T20:10:15.202Z,76936.41
2022-08-30T20:12:47.535Z,76946.34
2022-08-30T20:15:17.434Z,76958.28
2022-08-30T20:18:03.238Z,76964.25
2022-08-30T20:20:32.829Z,76980.13
2022-08-30T20:23:02.228Z,76988.09
2022-08-30T20:25:28.860Z,76984.13
2022-08-30T20:27:56.041Z,77004.00
2022-08-30T20:30:22.633Z,77004.00
2022-08-30T20:32:49.445Z,77015.91
2022-08-30T20:35:16.744Z,77025.84
2022-08-30T20:37:45.072Z,77031.81
2022-08-30T20:40:16.043Z,77031.81
2022-08-30T20:42:46.776Z,77043.75
2022-08-30T20:45:16.679Z,77059.63
2022-08-30T20:47:43.963Z,77063.63
2022-08-30T20:50:13.865Z,77079.50
2022-08-30T20:52:41.979Z,77071.56
2022-08-30T20:55:11.626Z,77087.47
2022-08-30T20:57:38.716Z,77093.44
2022-08-30T21:00:09.779Z,77105.34
2022-08-30T21:02:37.248Z,77105.34
2022-08-30T21:05:13.297Z,77113.31
2022-08-30T21:07:44.852Z,77115.28
2022-08-30T21:10:12.758Z,77117.28
2022-08-30T21:12:39.691Z,77117.28
2022-08-30T21:15:33.792Z,77129.19
2022-08-30T21:17:56.936Z,77145.09
2022-08-30T21:20:23.474Z,77143.13
2022-08-30T21:22:50.000Z,77155.03
2022-08-30T21:25:19.478Z,77166.97
2022-08-30T21:27:46.054Z,77163.00
2022-08-30T21:30:15.871Z,77166.97
2022-08-30T21:32:42.478Z,77176.91
2022-08-30T21:35:27.659Z,77170.94
2022-08-30T21:37:55.469Z,77176.91
2022-08-30T21:40:22.058Z,77178.88
2022-08-30T21:42:48.628Z,77182.88
2022-08-30T21:45:15.859Z,77200.75
2022-08-30T21:47:42.501Z,77206.72
2022-08-30T21:50:09.461Z,77212.69
2022-08-30T21:52:36.246Z,77220.63
2022-08-30T21:55:03.074Z,77226.59
2022-08-30T21:57:29.674Z,77238.50
2022-08-30T21:59:56.163Z,77234.53
2022-08-30T22:02:23.478Z,77244.47
2022-08-30T22:04:50.136Z,77248.44
2022-08-30T22:07:16.797Z,77256.41
2022-08-30T22:09:46.169Z,77258.38
2022-08-30T22:12:12.742Z,77260.38
2022-08-30T22:14:39.444Z,77256.41
2022-08-30T22:17:06.004Z,77264.34
2022-08-30T22:19:33.758Z,77266.34
2022-08-30T22:22:01.727Z,77270.31
2022-08-30T22:24:32.409Z,77278.25
2022-08-30T22:27:00.301Z,77280.25
2022-08-30T22:29:26.961Z,77286.22
2022-08-30T22:31:54.316Z,77290.19
2022-08-30T22:34:21.216Z,77294.16
2022-08-30T22:36:47.723Z,77302.13
2022-08-30T22:39:14.451Z,77302.13
2022-08-30T22:41:42.937Z,77312.06
2022-08-30T22:44:10.200Z,77316.03
2022-08-30T22:46:38.080Z,77322.00
2022-08-30T22:49:08.015Z,77323.97
2022-08-30T22:51:35.381Z,77331.94
2022-08-30T22:54:03.091Z,77333.91
2022-08-30T22:56:30.792Z,77322.00
2022-08-30T22:58:57.370Z,77320.00
2022-08-30T23:01:25.778Z,77327.97
2022-08-30T23:03:53.409Z,77333.91
2022-08-30T23:06:20.259Z,77343.84
2022-08-30T23:08:46.963Z,77339.88
2022-08-30T23:11:14.055Z,77357.78
2022-08-30T23:13:41.744Z,77355.78
2022-08-30T23:16:08.769Z,77365.72
2022-08-30T23:18:36.935Z,77361.75
2022-08-30T23:21:30.951Z,77379.63
2022-08-30T23:24:17.549Z,77389.56
2022-08-30T23:27:04.411Z,77389.56
2022-08-30T23:29:50.337Z,77389.56
2022-08-30T23:32:35.783Z,77387.59
2022-08-30T23:35:21.027Z,77393.56
2022-08-30T23:38:13.996Z,77387.59
2022-08-30T23:40:59.026Z,77389.56
2022-08-30T23:43:43.972Z,77389.56
2022-08-30T23:46:28.831Z,77383.59
2022-08-30T23:49:14.022Z,77381.63
2022-08-30T23:51:59.163Z,77395.53
2022-08-30T23:54:45.268Z,77385.59
2022-08-30T23:57:30.326Z,77383.59
